Time;durP1;ratioP1;P1;durP2;ratioP2;P2;SDS_P1;SDS_P2;PMS_P1;PMS_P2;Temp;Humidity;BMP_temperature;BMP_pressure;BME280_temperature;BME280_humidity;BME280_pressure;Samples;Min_cycle;Max_cycle;Signal;HPM_P1;HPM_P2
2022/11/28 00:01:32;;;;;;;2.50;2.30;;;7.10;99.90;;;7.40;nan;100522.50;5003847;28;20670;-66
2022/11/28 00:03:59;;;;;;;1.93;1.57;;;7.10;99.90;;;7.38;nan;100518.34;5003766;28;20704;-64
2022/11/28 00:06:27;;;;;;;2.97;1.90;;;7.10;99.90;;;7.33;nan;100517.78;4985280;28;20669;-64
2022/11/28 00:08:56;;;;;;;2.27;2.10;;;7.10;99.90;;;7.32;nan;100518.72;5011630;28;20641;-65
2022/11/28 00:11:23;;;;;;;4.30;3.00;;;7.10;99.90;;;7.17;nan;100520.47;5009859;28;20700;-64
2022/11/28 00:13:50;;;;;;;4.17;3.30;;;7.00;99.90;;;7.12;nan;100519.06;5007208;28;21193;-65
2022/11/28 00:16:20;;;;;;;1.60;1.50;;;7.00;99.90;;;7.05;nan;100513.38;5009103;28;20670;-65
2022/11/28 00:18:53;;;;;;;2.07;1.50;;;6.90;99.90;;;7.03;nan;100517.84;5005252;28;20661;-66
2022/11/28 00:21:21;;;;;;;3.67;1.63;;;6.90;99.90;;;7.00;nan;100529.25;5000021;28;20665;-66
2022/11/28 00:23:48;;;;;;;3.57;2.80;;;6.90;99.90;;;7.11;nan;100520.84;5009233;28;20634;-65
2022/11/28 00:26:28;;;;;;;5.03;3.63;;;6.90;99.90;;;7.12;nan;100516.47;5009605;28;20657;-65
2022/11/28 00:28:56;;;;;;;3.73;3.17;;;6.90;99.90;;;7.04;nan;100510.00;5004331;28;21192;-65
2022/11/28 00:31:28;;;;;;;1.97;1.87;;;6.90;99.90;;;7.18;nan;100505.72;5010516;28;20632;-65
2022/11/28 00:33:56;;;;;;;1.17;0.93;;;6.90;99.90;;;7.05;nan;100495.22;5010029;28;20684;-65
2022/11/28 00:36:24;;;;;;;1.47;1.30;;;6.90;99.90;;;7.02;nan;100492.84;5010788;28;20707;-65
2022/11/28 00:38:51;;;;;;;2.27;2.13;;;6.90;99.90;;;6.96;nan;100493.22;5009150;28;21200;-65
2022/11/28 00:41:27;;;;;;;1.57;1.47;;;6.80;99.90;;;6.95;nan;100500.16;4988367;28;20665;-65
2022/11/28 00:43:54;;;;;;;2.37;2.20;;;6.80;99.90;;;6.96;nan;100498.41;5009967;28;20622;-65
2022/11/28 00:46:22;;;;;;;1.90;1.50;;;6.80;99.90;;;6.84;nan;100499.09;5010678;28;20679;-65
2022/11/28 00:48:50;;;;;;;2.07;1.97;;;6.80;99.90;;;6.89;nan;100500.50;4989056;28;21213;-65
2022/11/28 00:51:26;;;;;;;2.67;2.40;;;6.80;99.90;;;6.93;nan;100502.00;5002780;28;20704;-65
2022/11/28 00:53:56;;;;;;;1.00;1.00;;;6.70;99.90;;;6.91;nan;100493.47;5010234;28;21213;-64
2022/11/28 00:56:32;;;;;;;0.93;0.93;;;6.70;99.90;;;6.84;nan;100492.16;4988304;28;20654;-66
2022/11/28 00:58:59;;;;;;;1.13;1.00;;;6.70;99.90;;;6.66;nan;100492.41;4983388;28;20630;-65
2022/11/28 01:01:37;;;;;;;1.43;1.30;;;6.70;99.90;;;6.57;nan;100492.94;5009963;28;20670;-65
2022/11/28 01:04:09;;;;;;;1.37;1.30;;;6.60;99.90;;;6.66;nan;100498.44;4991190;28;21037;-64
2022/11/28 01:06:40;;;;;;;2.77;2.37;;;6.50;99.90;;;6.50;nan;100491.59;5006144;28;20658;-65
2022/11/28 01:09:13;;;;;;;1.73;1.40;;;6.50;99.90;;;6.51;nan;100488.09;5005464;28;20675;-65
2022/11/28 01:11:41;;;;;;;0.40;0.40;;;6.40;99.90;;;6.37;nan;100480.28;5011143;28;20626;-64
2022/11/28 01:14:10;;;;;;;1.27;1.23;;;6.40;99.90;;;6.40;nan;100477.50;5010065;28;20653;-65
2022/11/28 01:16:38;;;;;;;2.40;1.80;;;6.40;99.90;;;6.41;nan;100482.59;5009030;28;20726;-65
2022/11/28 01:19:05;;;;;;;2.70;2.50;;;6.40;99.90;;;6.55;nan;100489.59;5009097;28;20633;-65
2022/11/28 01:21:33;;;;;;;2.50;2.13;;;6.40;99.90;;;6.60;nan;100490.16;4992634;28;20673;-64
2022/11/28 01:24:00;;;;;;;1.00;1.00;;;6.40;99.90;;;6.43;nan;100487.72;5008568;28;20642;-63
2022/11/28 01:26:29;;;;;;;1.23;1.10;;;6.40;99.90;;;6.28;nan;100477.28;5010221;28;21334;-65
2022/11/28 01:28:58;;;;;;;0.90;0.90;;;6.30;99.90;;;6.44;nan;100482.44;4995833;28;20675;-65
2022/11/28 01:31:28;;;;;;;2.03;1.67;;;6.30;99.90;;;6.38;nan;100481.94;5012494;28;20634;-65
2022/11/28 01:33:56;;;;;;;2.03;1.90;;;6.30;99.90;;;6.44;nan;100474.66;4996501;28;20626;-65
2022/11/28 01:36:24;;;;;;;4.07;1.53;;;6.30;99.90;;;6.64;nan;100469.16;5012741;28;21265;-64
2022/11/28 01:38:52;;;;;;;1.80;1.70;;;6.40;99.90;;;6.72;nan;100476.47;5009225;28;20623;-65
2022/11/28 01:41:24;;;;;;;1.93;1.67;;;6.50;99.90;;;6.57;nan;100461.81;4994216;28;20692;-65
2022/11/28 01:44:13;;;;;;;1.90;1.30;;;6.50;99.90;;;6.52;nan;100456.91;4981134;28;20699;-64
2022/11/28 01:46:41;;;;;;;1.50;1.50;;;6.40;99.90;;;6.64;nan;100453.63;5005191;28;21249;-65
2022/11/28 01:49:33;;;;;;;1.33;1.33;;;6.50;99.90;;;6.64;nan;100450.19;5012150;28;20641;-65
2022/11/28 01:52:14;;;;;;;3.10;1.60;;;6.50;99.90;;;6.48;nan;100444.19;5013444;28;20629;-64
2022/11/28 01:54:45;;;;;;;1.57;1.47;;;6.40;99.90;;;6.61;nan;100433.03;5002751;28;20635;-64
2022/11/28 01:57:18;;;;;;;1.07;1.03;;;6.50;99.90;;;6.62;nan;100424.31;4985725;28;20665;-65
2022/11/28 02:00:14;;;;;;;1.23;1.13;;;6.50;99.90;;;6.40;nan;100430.84;5004041;28;20643;-65
2022/11/28 02:02:59;;;;;;;1.88;1.23;;;6.40;99.90;;;6.58;nan;100420.25;4992346;28;20724;-65
2022/11/28 02:05:26;;;;;;;1.17;1.17;;;6.50;99.90;;;6.53;nan;100421.44;5002093;28;20264;-65
2022/11/28 02:07:53;;;;;;;2.07;1.87;;;6.40;99.90;;;6.60;nan;100415.81;5012411;28;20708;-64
2022/11/28 02:10:53;;;;;;;4.57;3.50;;;6.50;99.90;;;6.65;nan;100412.94;4998323;28;20645;-65
2022/11/28 02:13:56;;;;;;;3.30;3.00;;;6.40;99.90;;;6.70;nan;100408.34;4980449;28;20660;-65
2022/11/28 02:16:33;;;;;;;4.47;3.07;;;6.50;99.90;;;6.79;nan;100406.00;5008379;23;20727;-65
2022/11/28 02:19:24;;;;;;;3.70;2.97;;;6.50;99.90;;;6.82;nan;100412.78;4990692;28;20630;-65
2022/11/28 02:22:18;;;;;;;3.70;3.30;;;6.60;99.90;;;6.91;nan;100407.03;4990032;28;20679;-65
2022/11/28 02:25:25;;;;;;;2.47;2.37;;;6.60;99.90;;;6.93;nan;100416.41;4977000;28;20697;-65
2022/11/28 02:28:28;;;;;;;4.90;2.93;;;6.70;99.90;;;6.87;nan;100418.53;5008917;28;20661;-66
2022/11/28 02:31:25;;;;;;;2.50;2.30;;;6.70;99.90;;;6.91;nan;100420.00;4998745;28;20642;-65
2022/11/28 02:33:56;;;;;;;2.60;2.40;;;6.70;99.90;;;6.97;nan;100424.81;4993148;28;20636;-65
2022/11/28 02:36:53;;;;;;;2.93;2.63;;;6.70;99.90;;;6.96;nan;100423.19;4976257;28;21206;-65
2022/11/28 02:39:49;;;;;;;3.00;2.80;;;6.70;99.90;;;6.79;nan;100421.56;4970957;28;20635;-64
2022/11/28 02:42:27;;;;;;;3.77;3.07;;;6.70;99.90;;;6.87;nan;100418.53;4982365;28;20666;-65
2022/11/28 02:45:14;;;;;;;3.00;2.80;;;6.70;99.90;;;6.88;nan;100415.84;4975700;28;20634;-65
2022/11/28 02:47:58;;;;;;;7.00;2.57;;;6.70;99.90;;;6.88;nan;100410.66;4955868;28;21448;-65
2022/11/28 02:50:33;;;;;;;3.13;2.83;;;6.70;99.90;;;6.90;nan;100408.78;4961235;28;20730;-66
2022/11/28 02:53:17;;;;;;;2.73;2.47;;;6.70;99.90;;;6.90;nan;100410.53;4970084;28;21009;-65
2022/11/28 02:55:45;;;;;;;1.97;1.73;;;6.70;99.90;;;6.93;nan;100410.38;4970365;28;20670;-65
2022/11/28 02:58:12;;;;;;;2.50;2.07;;;6.70;99.90;;;6.92;nan;100408.72;5009203;28;21248;-65
2022/11/28 03:00:42;;;;;;;2.00;1.90;;;6.70;99.90;;;6.85;nan;100400.47;5012396;28;20719;-65
2022/11/28 03:03:42;;;;;;;4.40;2.80;;;6.70;99.90;;;6.87;nan;100397.78;4990085;28;20666;-65
2022/11/28 03:06:31;;;;;;;1.80;1.70;;;6.70;99.90;;;6.87;nan;100402.97;4992498;28;20696;-65
2022/11/28 03:09:13;;;;;;;3.33;2.00;;;6.60;99.90;;;6.86;nan;100396.09;5010293;28;21041;-63
2022/11/28 03:11:46;;;;;;;2.37;2.17;;;6.60;99.90;;;6.86;nan;100396.94;4998579;28;20689;-65
2022/11/28 03:14:34;;;;;;;4.10;2.30;;;6.70;99.90;;;6.85;nan;100391.84;5000985;28;20639;-65
2022/11/28 03:17:18;;;;;;;1.00;0.97;;;6.60;99.90;;;6.85;nan;100394.44;5000614;28;20657;-65
2022/11/28 03:20:00;;;;;;;2.00;1.87;;;6.60;99.90;;;6.74;nan;100382.13;5003507;28;20669;-66
2022/11/28 03:22:43;;;;;;;1.17;1.17;;;6.60;99.90;;;6.70;nan;100383.25;4997216;28;20667;-64
2022/11/28 03:25:38;;;;;;;2.60;2.40;;;6.60;99.90;;;6.68;nan;100381.66;4973941;28;20614;-64
2022/11/28 03:28:13;;;;;;;3.47;3.07;;;6.50;99.90;;;6.69;nan;100378.97;4973069;28;20712;-66
2022/11/28 03:30:49;;;;;;;2.67;2.47;;;6.50;99.90;;;6.75;nan;100376.00;4975512;28;20634;-64
2022/11/28 03:33:20;;;;;;;3.10;2.90;;;6.50;99.90;;;6.78;nan;100385.38;4969955;28;21261;-64
2022/11/28 03:36:00;;;;;;;2.47;2.27;;;6.50;99.90;;;6.78;nan;100388.78;4987167;28;20638;-65
2022/11/28 03:38:35;;;;;;;3.13;2.93;;;6.50;99.90;;;6.80;nan;100381.75;4974295;28;21268;-65
2022/11/28 03:41:09;;;;;;;3.50;3.20;;;6.50;99.90;;;6.75;nan;100382.97;4990712;28;20627;-65
2022/11/28 03:43:45;;;;;;;2.90;2.70;;;6.50;99.90;;;6.75;nan;100375.19;4972764;28;21213;-64
2022/11/28 03:46:17;;;;;;;3.40;3.10;;;6.50;99.90;;;6.73;nan;100375.25;4993735;28;20653;-65
2022/11/28 03:48:49;;;;;;;3.73;3.40;;;6.50;99.90;;;6.74;nan;100373.50;4994092;28;20639;-65
2022/11/28 03:51:51;;;;;;;4.60;2.80;;;6.50;99.90;;;6.79;nan;100369.72;4973527;28;20642;-65
2022/11/28 03:54:38;;;;;;;3.63;2.77;;;6.50;99.90;;;6.79;nan;100372.28;4948699;28;20696;-65
2022/11/28 03:57:23;;;;;;;2.97;2.80;;;6.50;99.90;;;6.75;nan;100370.00;5001146;28;20707;-65
2022/11/28 03:59:53;;;;;;;2.60;2.40;;;6.50;99.90;;;6.66;nan;100378.34;4988053;28;20696;-65
2022/11/28 04:02:33;;;;;;;4.37;3.30;;;6.50;99.90;;;6.55;nan;100371.19;4997981;28;20670;-64
2022/11/28 04:05:22;;;;;;;3.23;2.90;;;6.40;99.90;;;6.58;nan;100370.19;4973687;28;20626;-66
2022/11/28 04:08:13;;;;;;;2.83;2.63;;;6.40;99.90;;;6.66;nan;100371.41;4989880;28;20649;-64
2022/11/28 04:10:43;;;;;;;3.70;3.10;;;6.40;99.90;;;6.61;nan;100376.00;4954618;28;20998;-65
2022/11/28 04:13:31;;;;;;;3.43;3.00;;;6.40;99.90;;;6.62;nan;100367.28;4983944;28;20671;-66
2022/11/28 04:16:23;;;;;;;2.70;2.10;;;6.40;99.90;;;6.60;nan;100374.31;4971760;28;20628;-65
2022/11/28 04:19:09;;;;;;;4.30;3.40;;;6.40;99.90;;;6.57;nan;100379.72;4982392;28;20673;-65
2022/11/28 04:21:43;;;;;;;6.07;3.80;;;6.40;99.90;;;6.59;nan;100372.69;4996843;28;20660;-64
2022/11/28 04:24:17;;;;;;;3.23;2.73;;;6.40;99.90;;;6.53;nan;100375.63;4993356;28;20673;-65
2022/11/28 04:26:54;;;;;;;2.80;2.70;;;6.30;99.90;;;6.62;nan;100371.66;4988416;28;21078;-65
2022/11/28 04:29:23;;;;;;;2.07;1.90;;;6.40;99.90;;;6.42;nan;100365.06;4979836;28;20635;-65
2022/11/28 04:31:55;;;;;;;1.73;1.63;;;6.30;99.90;;;6.35;nan;100363.75;4992319;28;20627;-65
2022/11/28 04:34:24;;;;;;;1.27;1.17;;;6.30;99.90;;;6.21;nan;100355.97;4990927;28;20649;-65
2022/11/28 04:36:54;;;;;;;1.63;1.53;;;6.20;99.90;;;6.12;nan;100359.91;4976029;28;20741;-67
2022/11/28 04:39:24;;;;;;;0.90;0.90;;;6.10;99.90;;;6.17;nan;100355.31;4986579;28;20638;-67
2022/11/28 04:42:01;;;;;;;1.47;1.47;;;6.10;99.90;;;6.28;nan;100351.25;5005777;28;20637;-64
2022/11/28 04:44:53;;;;;;;2.03;1.83;;;6.10;99.90;;;6.08;nan;100340.31;4996170;28;21194;-66
2022/11/28 04:47:21;;;;;;;1.67;1.50;;;6.00;99.90;;;6.07;nan;100351.56;4990609;28;20651;-66
2022/11/28 04:49:48;;;;;;;1.73;1.67;;;6.00;99.90;;;6.19;nan;100350.88;4989553;28;21056;-66
2022/11/28 04:53:04;;;;;;;2.63;2.40;;;6.00;99.90;;;6.17;nan;100352.72;4991147;28;21190;-65
2022/11/28 04:55:47;;;;;;;2.30;2.10;;;6.00;99.90;;;6.16;nan;100348.44;4966574;28;20656;-65
2022/11/28 04:58:41;;;;;;;2.37;2.17;;;6.10;99.90;;;6.28;nan;100346.91;4964143;28;20638;-65
2022/11/28 05:01:15;;;;;;;2.77;2.57;;;6.10;99.90;;;6.31;nan;100351.06;4970317;28;20968;-65
2022/11/28 05:03:42;;;;;;;6.47;3.70;;;6.10;99.90;;;6.31;nan;100341.53;4976167;28;20666;-64
2022/11/28 05:06:09;;;;;;;2.20;2.00;;;6.10;99.90;;;6.28;nan;100336.56;4993335;28;20695;-64
2022/11/28 05:08:36;;;;;;;2.17;1.90;;;6.10;99.90;;;6.17;nan;100338.94;4976688;28;20634;-65
2022/11/28 05:11:03;;;;;;;3.33;2.17;;;6.10;99.90;;;6.01;nan;100343.31;4994730;28;20983;-65
2022/11/28 05:13:30;;;;;;;2.13;1.93;;;6.00;99.90;;;6.00;nan;100333.91;4994421;28;20700;-65
2022/11/28 05:16:00;;;;;;;2.53;2.08;;;6.00;99.90;;;5.88;nan;100332.81;4994391;28;20626;-65
2022/11/28 05:18:27;;;;;;;2.60;1.40;;;5.90;99.90;;;5.92;nan;100336.91;5010927;28;20264;-64
2022/11/28 05:20:54;;;;;;;1.75;1.65;;;5.90;99.90;;;6.04;nan;100333.63;4995559;28;20634;-65
2022/11/28 05:23:21;;;;;;;2.70;2.50;;;5.90;99.90;;;6.00;nan;100334.75;5013435;28;20249;-65
2022/11/28 05:25:48;;;;;;;2.72;2.08;;;5.90;99.90;;;5.99;nan;100329.63;5014209;28;21173;-64
2022/11/28 05:28:15;;;;;;;2.27;2.07;;;5.90;99.90;;;6.01;nan;100330.38;4990458;28;20228;-65
2022/11/28 05:30:41;;;;;;;3.43;3.13;;;5.90;99.90;;;6.08;nan;100329.94;4994006;28;20685;-65
2022/11/28 05:33:08;;;;;;;3.43;3.13;;;5.90;99.90;;;6.05;nan;100334.44;4995388;28;21050;-65
2022/11/28 05:35:38;;;;;;;4.47;3.63;;;5.90;99.90;;;6.13;nan;100333.06;4975429;28;20666;-65
2022/11/28 05:38:05;;;;;;;2.70;2.40;;;5.90;99.90;;;6.19;nan;100332.75;4994714;28;21237;-64
2022/11/28 05:40:42;;;;;;;3.00;2.67;;;6.00;99.90;;;6.29;nan;100333.03;4992885;28;20208;-65
2022/11/28 05:43:10;;;;;;;3.00;2.53;;;6.00;99.90;;;6.19;nan;100326.72;4994215;28;20704;-65
2022/11/28 05:45:44;;;;;;;4.70;4.13;;;6.10;99.90;;;6.19;nan;100332.75;5000069;28;20634;-65
2022/11/28 05:48:11;;;;;;;3.77;2.90;;;6.00;99.90;;;6.17;nan;100334.59;5013127;28;20662;-65
2022/11/28 05:50:40;;;;;;;4.87;4.23;;;6.00;99.90;;;6.25;nan;100334.13;5002788;28;20642;-65
2022/11/28 05:53:08;;;;;;;4.10;3.40;;;6.00;99.90;;;6.31;nan;100325.16;4998732;28;20634;-64
2022/11/28 05:55:38;;;;;;;5.80;4.57;;;6.00;99.90;;;6.36;nan;100328.31;4992806;28;20635;-65
2022/11/28 05:58:05;;;;;;;5.17;3.73;;;6.10;99.90;;;6.29;nan;100327.84;4992813;28;20661;-65
2022/11/28 06:00:32;;;;;;;4.00;3.20;;;6.10;99.90;;;6.38;nan;100321.28;4987335;28;21369;-64
2022/11/28 06:02:59;;;;;;;3.30;2.70;;;6.10;99.90;;;6.25;nan;100322.00;4994700;28;21016;-64
2022/11/28 06:05:27;;;;;;;4.40;3.13;;;6.10;99.90;;;6.29;nan;100322.66;4991561;28;20618;-64
2022/11/28 06:08:10;;;;;;;7.00;4.10;;;6.10;99.90;;;6.30;nan;100321.75;5012268;28;20667;-65
2022/11/28 06:10:37;;;;;;;6.13;4.57;;;6.10;99.90;;;6.26;nan;100323.66;5010786;28;20614;-64
2022/11/28 06:13:04;;;;;;;5.20;3.83;;;6.10;99.90;;;6.32;nan;100322.50;4992542;28;20645;-64
2022/11/28 06:15:32;;;;;;;6.87;4.37;;;6.10;99.90;;;6.31;nan;100320.81;4975397;28;20642;-65
2022/11/28 06:18:03;;;;;;;7.07;3.83;;;6.10;99.90;;;6.33;nan;100324.13;5003385;28;20673;-65
2022/11/28 06:20:30;;;;;;;4.03;3.70;;;6.10;99.90;;;6.10;nan;100325.50;5011999;28;20679;-64
2022/11/28 06:22:57;;;;;;;7.87;5.00;;;6.10;99.90;;;6.23;nan;100328.22;4974338;28;20701;-65
2022/11/28 06:25:24;;;;;;;7.27;4.53;;;6.10;99.90;;;6.32;nan;100332.84;4973214;28;20611;-65
2022/11/28 06:27:51;;;;;;;4.17;3.77;;;6.10;99.90;;;6.40;nan;100334.97;4991575;28;20659;-65
2022/11/28 06:30:18;;;;;;;6.87;3.90;;;6.10;99.90;;;6.38;nan;100339.41;4992954;28;20978;-65
2022/11/28 06:32:45;;;;;;;4.50;3.57;;;6.10;99.90;;;6.41;nan;100334.88;4995038;28;20639;-64
2022/11/28 06:35:12;;;;;;;2.00;1.90;;;6.10;99.90;;;6.35;nan;100332.66;5003698;28;20642;-65
2022/11/28 06:37:39;;;;;;;2.60;2.33;;;6.20;99.90;;;6.39;nan;100333.31;5008809;28;20669;-66
2022/11/28 06:40:06;;;;;;;5.13;3.50;;;6.20;99.90;;;6.42;nan;100328.78;4983359;28;20642;-65
2022/11/28 06:42:35;;;;;;;6.57;4.30;;;6.20;99.90;;;6.45;nan;100326.03;4989017;28;20638;-65
2022/11/28 06:45:03;;;;;;;2.83;2.20;;;6.20;99.90;;;6.40;nan;100329.78;4974381;28;20618;-66
2022/11/28 06:47:31;;;;;;;2.57;2.40;;;6.20;99.90;;;6.28;nan;100337.34;4992587;28;20667;-65
2022/11/28 06:49:57;;;;;;;6.70;4.73;;;6.20;99.90;;;6.38;nan;100349.78;4991784;28;20660;-66
2022/11/28 06:52:25;;;;;;;5.03;3.53;;;6.10;99.90;;;6.33;nan;100333.66;5006670;28;20696;-65
2022/11/28 06:54:52;;;;;;;2.07;1.87;;;6.10;99.90;;;6.28;nan;100343.47;5004387;28;20638;-65
2022/11/28 06:57:20;;;;;;;2.53;2.33;;;6.10;99.90;;;6.12;nan;100336.59;4975182;28;21257;-65
2022/11/28 06:59:49;;;;;;;2.60;1.90;;;6.00;99.90;;;6.04;nan;100335.38;4991610;28;20635;-65
2022/11/28 07:02:16;;;;;;;1.30;1.30;;;6.00;99.90;;;5.85;nan;100338.19;4995160;28;20654;-65
2022/11/28 07:04:43;;;;;;;3.60;2.63;;;5.90;99.90;;;6.02;nan;100334.63;4998242;28;20948;-65
2022/11/28 07:07:10;;;;;;;3.40;2.30;;;5.90;99.90;;;5.87;nan;100336.34;4995892;28;20669;-65
2022/11/28 07:09:42;;;;;;;0.50;0.50;;;5.80;99.90;;;5.86;nan;100334.69;4992864;28;20638;-66
2022/11/28 07:12:10;;;;;;;5.83;3.33;;;5.90;99.90;;;5.95;nan;100346.25;4990792;28;20623;-63
2022/11/28 07:14:37;;;;;;;2.97;1.73;;;5.90;99.90;;;5.92;nan;100342.09;4987954;28;20685;-65
2022/11/28 07:17:04;;;;;;;3.63;3.30;;;5.90;99.90;;;6.04;nan;100345.75;4992655;28;20667;-66
2022/11/28 07:19:31;;;;;;;1.57;1.47;;;5.90;99.90;;;5.98;nan;100344.34;4997260;28;20708;-66
2022/11/28 07:21:58;;;;;;;5.03;3.23;;;5.90;99.90;;;5.89;nan;100351.78;4991717;28;20623;-65
2022/11/28 07:24:25;;;;;;;3.58;3.08;;;5.90;99.90;;;5.91;nan;100347.38;4990575;28;21145;-65
2022/11/28 07:26:52;;;;;;;1.50;1.30;;;5.90;99.90;;;5.82;nan;100353.03;4999757;28;20226;-65
2022/11/28 07:29:19;;;;;;;2.33;2.13;;;5.90;99.90;;;5.96;nan;100343.56;5004196;28;20643;-65
2022/11/28 07:31:46;;;;;;;3.35;3.05;;;5.90;99.90;;;5.73;nan;100356.16;4991269;28;21007;-65
2022/11/28 07:34:13;;;;;;;3.40;2.73;;;5.80;99.90;;;5.76;nan;100353.38;4991189;28;20210;-65
2022/11/28 07:36:40;;;;;;;4.07;2.97;;;5.70;99.90;;;6.01;nan;100358.84;4990788;28;20654;-66
2022/11/28 07:39:09;;;;;;;5.60;3.63;;;5.80;99.90;;;6.07;nan;100348.97;4981935;28;21232;-65
2022/11/28 07:41:36;;;;;;;4.50;3.30;;;5.90;99.90;;;5.97;nan;100349.59;4955052;28;21000;-66
2022/11/28 07:44:04;;;;;;;4.45;3.80;;;5.90;99.90;;;6.13;nan;100356.38;4985375;28;20671;-65
2022/11/28 07:46:32;;;;;;;2.30;2.03;;;5.90;99.90;;;6.13;nan;100351.22;4991606;28;20598;-65
2022/11/28 07:48:59;;;;;;;1.77;1.47;;;6.00;99.90;;;6.14;nan;100345.13;4979301;28;20753;-66
2022/11/28 07:51:30;;;;;;;2.23;1.40;;;6.00;99.90;;;5.97;nan;100347.00;4991749;28;20668;-66
2022/11/28 07:53:57;;;;;;;2.00;1.10;;;6.00;99.90;;;5.89;nan;100347.47;4987948;28;20688;-66
2022/11/28 07:56:28;;;;;;;1.50;1.40;;;5.90;99.90;;;6.02;nan;100350.19;4992267;28;20658;-65
2022/11/28 07:59:15;;;;;;;2.93;1.83;;;5.90;99.90;;;6.08;nan;100347.22;4990241;28;20658;-64
2022/11/28 08:01:42;;;;;;;3.57;2.87;;;6.00;99.90;;;6.11;nan;100347.06;4991844;28;20623;-65
2022/11/28 08:04:09;;;;;;;2.57;1.80;;;6.00;99.90;;;6.11;nan;100341.88;4991542;28;20679;-64
2022/11/28 08:06:40;;;;;;;2.23;2.10;;;6.00;99.90;;;6.20;nan;100343.91;5004765;28;20668;-64
2022/11/28 08:09:07;;;;;;;2.70;2.00;;;6.10;99.90;;;6.17;nan;100332.00;4987062;28;20674;-64
2022/11/28 08:11:35;;;;;;;4.07;1.43;;;6.10;99.90;;;6.14;nan;100347.72;4966802;28;20878;-64
2022/11/28 08:14:02;;;;;;;5.77;3.00;;;6.00;99.90;;;6.19;nan;100350.88;4979159;28;20645;-64
2022/11/28 08:16:30;;;;;;;3.70;2.00;;;6.10;99.90;;;6.28;nan;100346.91;5020578;23;20674;-65
2022/11/28 08:19:00;;;;;;;5.07;2.43;;;6.10;99.90;;;6.45;nan;100349.34;5007405;28;20661;-66
2022/11/28 08:21:31;;;;;;;2.57;2.37;;;6.20;99.90;;;6.34;nan;100346.56;5000936;28;20634;-66
2022/11/28 08:24:00;;;;;;;2.40;2.23;;;6.20;99.90;;;6.44;nan;100352.00;5009581;28;20673;-65
2022/11/28 08:26:29;;;;;;;2.43;2.17;;;6.20;99.90;;;6.43;nan;100345.19;5010947;28;21212;-67
2022/11/28 08:28:59;;;;;;;3.07;2.70;;;6.30;99.90;;;6.55;nan;100349.63;5009124;28;20630;-64
2022/11/28 08:31:30;;;;;;;6.07;2.70;;;6.30;99.90;;;6.62;nan;100345.75;5010992;28;21268;-65
2022/11/28 08:34:00;;;;;;;5.47;3.80;;;6.40;99.90;;;6.55;nan;100344.44;5009232;28;20633;-64
2022/11/28 08:36:27;;;;;;;2.80;2.03;;;6.40;99.90;;;6.70;nan;100353.88;4994050;28;20695;-64
2022/11/28 08:38:56;;;;;;;4.50;3.27;;;6.50;99.90;;;6.69;nan;100352.19;5014177;28;20645;-64
2022/11/28 08:41:42;;;;;;;4.53;3.50;;;6.50;99.90;;;6.84;nan;100359.06;5013443;28;20638;-65
2022/11/28 08:44:09;;;;;;;3.23;2.97;;;6.60;99.90;;;6.80;nan;100355.81;5012259;28;20681;-64
2022/11/28 08:46:36;;;;;;;4.97;3.10;;;6.60;99.90;;;6.75;nan;100349.25;5013241;28;20657;-64
2022/11/28 08:49:03;;;;;;;4.80;3.90;;;6.60;99.90;;;6.85;nan;100352.97;5013274;28;20638;-65
2022/11/28 08:51:30;;;;;;;5.50;2.93;;;6.60;99.90;;;6.80;nan;100358.41;5009197;28;20633;-65
2022/11/28 08:53:58;;;;;;;2.90;1.73;;;6.70;99.90;;;6.84;nan;100353.88;5012876;28;20630;-63
2022/11/28 08:56:26;;;;;;;3.30;1.67;;;6.60;99.90;;;6.78;nan;100343.88;5011957;28;21026;-65
2022/11/28 08:58:54;;;;;;;3.13;2.50;;;6.70;99.90;;;6.85;nan;100347.78;5013288;28;20625;-65
2022/11/28 09:01:24;;;;;;;6.07;3.10;;;6.70;99.90;;;6.78;nan;100351.66;4996232;28;20704;-65
2022/11/28 09:03:54;;;;;;;8.10;4.63;;;6.70;99.90;;;7.12;nan;100353.00;5013673;28;21040;-63
2022/11/28 09:06:22;;;;;;;6.00;3.90;;;6.80;99.90;;;7.19;nan;100354.31;5013015;28;20641;-65
2022/11/28 09:08:50;;;;;;;4.53;2.33;;;6.80;99.90;;;7.11;nan;100352.19;5012831;28;21163;-65
2022/11/28 09:11:20;;;;;;;1.03;0.90;;;6.90;99.90;;;6.80;nan;100352.41;5011447;28;21197;-65
2022/11/28 09:13:47;;;;;;;3.47;2.57;;;6.90;99.90;;;6.96;nan;100351.34;5012179;28;20673;-65
2022/11/28 09:16:14;;;;;;;1.00;0.90;;;6.80;99.90;;;6.97;nan;100341.81;5012507;28;20637;-64
2022/11/28 09:18:44;;;;;;;3.47;2.87;;;6.90;99.90;;;7.00;nan;100342.50;5010955;28;20706;-66
2022/11/28 09:21:13;;;;;;;2.97;2.20;;;6.90;99.90;;;7.07;nan;100351.53;5012467;28;20634;-65
2022/11/28 09:23:43;;;;;;;4.50;2.63;;;6.90;99.90;;;6.96;nan;100346.16;5013254;28;20724;-66
2022/11/28 09:26:16;;;;;;;4.33;2.90;;;6.90;99.90;;;7.16;nan;100344.94;5013006;28;21246;-62
2022/11/28 09:28:43;;;;;;;1.50;1.27;;;6.90;99.90;;;7.25;nan;100341.78;4995793;28;20629;-64
2022/11/28 09:31:12;;;;;;;3.30;2.83;;;7.00;99.90;;;7.33;nan;100336.94;5009669;28;20998;-64
2022/11/28 09:33:39;;;;;;;3.50;2.23;;;7.10;99.90;;;7.05;nan;100342.19;5012387;28;21283;-65
2022/11/28 09:36:10;;;;;;;2.93;2.50;;;7.00;99.90;;;7.27;nan;100339.09;4992082;28;20645;-63
2022/11/28 09:38:38;;;;;;;3.20;2.90;;;7.10;99.90;;;7.52;nan;100344.38;4999658;28;20999;-64
2022/11/28 09:41:43;;;;;;;4.87;3.30;;;7.20;99.90;;;7.60;nan;100352.53;5012458;28;20637;-63
2022/11/28 09:44:13;;;;;;;4.07;1.57;;;7.20;99.90;;;7.40;nan;100333.03;4994701;28;20668;-64
2022/11/28 09:46:41;;;;;;;3.63;2.33;;;7.30;99.90;;;7.32;nan;100340.47;5013152;28;20654;-64
2022/11/28 09:49:30;;;;;;;3.07;2.07;;;7.20;99.90;;;7.37;nan;100341.00;4994963;28;20630;-63
2022/11/28 09:52:22;;;;;;;4.23;2.80;;;7.20;99.90;;;7.20;nan;100345.59;4993830;28;20629;-63
2022/11/28 09:55:05;;;;;;;4.90;2.10;;;7.20;99.90;;;7.09;nan;100341.09;5006860;28;20644;-63
2022/11/28 09:57:46;;;;;;;4.00;3.07;;;7.10;99.90;;;7.12;nan;100335.69;5008656;28;21236;-64
2022/11/28 10:00:21;;;;;;;1.60;1.47;;;7.10;99.90;;;7.08;nan;100329.03;4994014;28;20637;-64
2022/11/28 10:03:18;;;;;;;1.40;1.30;;;7.10;99.90;;;7.21;nan;100329.09;5011597;28;20637;-65
2022/11/28 10:05:45;;;;;;;0.83;0.83;;;7.10;99.90;;;6.92;nan;100334.31;5012219;28;20872;-64
2022/11/28 10:08:36;;;;;;;2.27;2.03;;;7.00;99.90;;;7.16;nan;100331.97;5012864;28;20668;-66
2022/11/28 10:11:38;;;;;;;4.90;1.60;;;7.00;99.90;;;7.06;nan;100333.47;4992633;28;20634;-64
2022/11/28 10:14:56;;;;;;;1.43;1.17;;;7.00;99.90;;;7.12;nan;100327.91;4995455;28;21223;-64
2022/11/28 10:17:57;;;;;;;1.83;1.17;;;7.00;99.90;;;7.23;nan;100324.63;4998370;28;21105;-64
2022/11/28 10:20:30;;;;;;;1.73;0.97;;;7.10;99.90;;;7.29;nan;100319.06;4998952;28;20948;-64
2022/11/28 10:23:17;;;;;;;1.00;1.00;;;7.10;99.90;;;7.33;nan;100313.56;5005836;28;20629;-64
2022/11/28 10:25:55;;;;;;;4.57;3.27;;;7.20;99.90;;;7.52;nan;100321.84;5004313;28;20654;-65
2022/11/28 10:28:33;;;;;;;4.07;2.67;;;7.20;99.90;;;7.21;nan;100329.94;4993104;28;20661;-66
2022/11/28 10:31:19;;;;;;;3.83;2.90;;;7.20;99.90;;;7.32;nan;100324.91;4994675;28;20633;-66
2022/11/28 10:34:24;;;;;;;2.70;1.87;;;7.20;99.90;;;7.30;nan;100324.19;4992895;28;20629;-64
2022/11/28 10:37:00;;;;;;;1.80;1.03;;;7.20;99.90;;;6.99;nan;100324.41;5000502;28;21213;-64
2022/11/28 10:39:28;;;;;;;5.00;3.43;;;7.10;99.90;;;7.31;nan;100331.00;4979018;28;20638;-64
2022/11/28 10:42:24;;;;;;;1.53;1.47;;;7.10;99.90;;;7.60;nan;100331.75;5007535;28;20630;-64
2022/11/28 10:45:44;;;;;;;4.43;2.17;;;7.30;99.90;;;7.66;nan;100336.56;4994936;28;21218;-64
2022/11/28 10:48:38;;;;;;;1.03;1.03;;;7.50;99.90;;;7.65;nan;100330.53;4991692;28;20657;-64
2022/11/28 10:51:40;;;;;;;7.30;3.57;;;7.50;99.90;;;7.90;nan;100340.16;5008019;28;20739;-65
2022/11/28 10:54:28;;;;;;;2.83;0.60;;;7.60;99.90;;;7.83;nan;100328.50;4991117;28;20637;-64
2022/11/28 10:57:37;;;;;;;1.27;1.17;;;7.70;99.90;;;7.54;nan;100332.97;5003124;28;20642;-65
2022/11/28 11:00:12;;;;;;;1.50;0.93;;;7.60;99.90;;;7.64;nan;100330.63;4991499;28;20634;-64
2022/11/28 11:02:53;;;;;;;2.50;1.90;;;7.60;99.90;;;7.69;nan;100332.00;4989828;28;20693;-64
2022/11/28 11:05:32;;;;;;;1.23;1.20;;;7.50;99.90;;;7.52;nan;100327.03;5011343;28;20688;-64
2022/11/28 11:08:19;;;;;;;1.73;1.27;;;7.50;99.90;;;7.67;nan;100327.81;5011684;28;21022;-64
2022/11/28 11:10:52;;;;;;;3.77;3.00;;;7.60;99.90;;;7.70;nan;100323.28;5012082;28;20634;-63
2022/11/28 11:13:25;;;;;;;0.90;0.90;;;7.50;99.90;;;7.67;nan;100320.88;5010893;28;20684;-64